createdAt,value
2022-10-08T00:01:31.514Z,101087.44
2022-10-08T00:04:01.295Z,101081.91
2022-10-08T00:06:31.150Z,101078.91
2022-10-08T00:09:01.893Z,101078.44
2022-10-08T00:11:33.470Z,101071.81
2022-10-08T00:14:02.942Z,101079.75
2022-10-08T00:16:32.783Z,101075.13
2022-10-08T00:19:04.867Z,101066.41
2022-10-08T00:21:35.357Z,101080.53
2022-10-08T00:24:04.822Z,101075.44
2022-10-08T00:26:37.487Z,101073.03
2022-10-08T00:29:12.583Z,101072.59
2022-10-08T00:31:42.720Z,101065.25
2022-10-08T00:34:14.785Z,101061.31
2022-10-08T00:36:43.335Z,101056.38
2022-10-08T00:39:15.516Z,101063.22
2022-10-08T00:41:45.360Z,101063.41
2022-10-08T00:44:54.253Z,101060.38
2022-10-08T00:47:35.999Z,101058.47
2022-10-08T00:50:11.216Z,101056.88
2022-10-08T00:52:42.795Z,101054.16
2022-10-08T00:55:11.739Z,101046.41
2022-10-08T00:57:40.507Z,101047.47
2022-10-08T01:00:12.746Z,101039.69
2022-10-08T01:02:41.384Z,101042.88
2022-10-08T01:05:14.030Z,101043.19
2022-10-08T01:07:49.588Z,101034.16
2022-10-08T01:10:32.879Z,101030.97
2022-10-08T01:13:17.655Z,101027.53
2022-10-08T01:15:55.047Z,101023.56
2022-10-08T01:18:31.934Z,101024.97
2022-10-08T01:21:08.872Z,101020.38
2022-10-08T01:23:58.012Z,101023.72
2022-10-08T01:26:42.516Z,101023.53
2022-10-08T01:29:17.438Z,101018.94
2022-10-08T01:31:49.181Z,101020.38
2022-10-08T01:34:21.789Z,101010.53
2022-10-08T01:36:53.282Z,101025.31
2022-10-08T01:39:24.085Z,101022.25
2022-10-08T01:41:56.477Z,101015.31
2022-10-08T01:44:30.120Z,101011.78
2022-10-08T01:47:01.233Z,101016.56
2022-10-08T01:49:34.503Z,101008.31
2022-10-08T01:52:09.040Z,101001.53
2022-10-08T01:54:40.582Z,101005.00
2022-10-08T01:57:11.560Z,101006.09
2022-10-08T01:59:46.249Z,101004.53
2022-10-08T02:02:19.992Z,100994.69
2022-10-08T02:04:49.352Z,100996.75
2022-10-08T02:07:19.557Z,100994.97
2022-10-08T02:09:52.438Z,100992.63
2022-10-08T02:12:23.143Z,100990.72
2022-10-08T02:14:55.586Z,100992.00
2022-10-08T02:17:37.962Z,100993.09
2022-10-08T02:20:12.588Z,100997.53
2022-10-08T02:22:48.662Z,100999.13
2022-10-08T02:25:26.089Z,100991.22
2022-10-08T02:28:01.080Z,100996.28
2022-10-08T02:30:38.621Z,100994.22
2022-10-08T02:33:13.353Z,100994.69
2022-10-08T02:35:48.149Z,100983.28
2022-10-08T02:38:21.277Z,100976.94
2022-10-08T02:40:54.038Z,100980.44
2022-10-08T02:43:27.129Z,100982.97
2022-10-08T02:46:00.347Z,100978.41
2022-10-08T02:48:32.018Z,100978.22
2022-10-08T02:51:04.456Z,100970.59
2022-10-08T02:53:33.875Z,100978.06
2022-10-08T02:56:16.541Z,100979.94
2022-10-08T02:58:45.999Z,100978.69
2022-10-08T03:01:25.321Z,100984.09
2022-10-08T03:03:59.920Z,100989.47
2022-10-08T03:06:30.137Z,100992.31
2022-10-08T03:09:00.844Z,100978.66
2022-10-08T03:11:31.170Z,100987.84
2022-10-08T03:14:00.981Z,100980.69
2022-10-08T03:16:39.533Z,100975.47
2022-10-08T03:19:10.424Z,100971.13
2022-10-08T03:21:40.172Z,100957.50
2022-10-08T03:24:08.832Z,100968.91
2022-10-08T03:26:37.486Z,100960.38
2022-10-08T03:29:06.603Z,100971.75
2022-10-08T03:31:36.602Z,100963.88
2022-10-08T03:34:04.815Z,100951.81
2022-10-08T03:36:33.258Z,100951.19
2022-10-08T03:39:01.345Z,100955.78
2022-10-08T03:41:31.394Z,100961.00
2022-10-08T03:44:00.817Z,100959.75
2022-10-08T03:46:29.075Z,100961.25
2022-10-08T03:48:58.635Z,100956.75
2022-10-08T03:51:26.996Z,100963.91
2022-10-08T03:53:55.105Z,100951.50
2022-10-08T03:56:25.093Z,100959.84
2022-10-08T03:58:55.294Z,100965.59
2022-10-08T04:01:24.126Z,100970.16
2022-10-08T04:03:52.263Z,100968.28
2022-10-08T04:06:21.859Z,100960.38
2022-10-08T04:08:49.970Z,100964.41
2022-10-08T04:11:19.161Z,100965.72
2022-10-08T04:13:47.309Z,100955.78
2022-10-08T04:16:18.167Z,100962.13
2022-10-08T04:18:47.118Z,100959.13
2022-10-08T04:21:18.553Z,100952.16
2022-10-08T04:23:49.661Z,100957.72
2022-10-08T04:26:18.324Z,100953.28
2022-10-08T04:28:48.174Z,100948.03
2022-10-08T04:31:18.537Z,100951.72
2022-10-08T04:33:47.489Z,100953.28
2022-10-08T04:36:17.988Z,100951.88
2022-10-08T04:38:48.091Z,100955.34
2022-10-08T04:41:18.472Z,100960.63
2022-10-08T04:43:47.695Z,100955.03
2022-10-08T04:46:18.042Z,100950.53
2022-10-08T04:48:48.913Z,100960.06
2022-10-08T04:51:17.567Z,100955.91
2022-10-08T04:53:47.894Z,100965.75
2022-10-08T04:56:18.355Z,100967.66
2022-10-08T04:58:46.958Z,100970.19
2022-10-08T05:01:18.027Z,100972.94
2022-10-08T05:03:47.908Z,100976.09
2022-10-08T05:06:16.700Z,100981.44
2022-10-08T05:08:45.112Z,100971.78
2022-10-08T05:11:15.351Z,100980.50
2022-10-08T05:13:43.970Z,100976.53
2022-10-08T05:16:14.175Z,100976.75
2022-10-08T05:18:43.928Z,100982.00
2022-10-08T05:21:14.739Z,100976.31
2022-10-08T05:23:44.079Z,100972.34
2022-10-08T05:26:15.686Z,100980.78
2022-10-08T05:28:44.224Z,100977.09
2022-10-08T05:31:12.599Z,100982.03
2022-10-08T05:33:41.159Z,100986.47
2022-10-08T05:36:11.795Z,100988.38
2022-10-08T05:38:39.871Z,100985.03
2022-10-08T05:41:12.416Z,100991.69
2022-10-08T05:43:42.671Z,100992.00
2022-10-08T05:46:11.361Z,100995.91
2022-10-08T05:48:40.127Z,101000.66
2022-10-08T05:51:10.704Z,100995.13
2022-10-08T05:53:40.452Z,101000.38
2022-10-08T05:56:10.215Z,101001.63
2022-10-08T05:58:40.322Z,100996.22
2022-10-08T06:01:14.269Z,100999.09
2022-10-08T06:03:42.752Z,100997.44
2022-10-08T06:06:13.118Z,101001.84
2022-10-08T06:08:41.656Z,101014.00
2022-10-08T06:11:09.916Z,101013.78
2022-10-08T06:13:38.326Z,101008.88
2022-10-08T06:16:08.493Z,101009.22
2022-10-08T06:18:40.218Z,101004.78
2022-10-08T06:21:10.338Z,100999.03
2022-10-08T06:23:39.329Z,100993.56
2022-10-08T06:26:08.999Z,100990.34
2022-10-08T06:28:39.536Z,101009.00
2022-10-08T06:31:10.039Z,100998.63
2022-10-08T06:33:39.766Z,100999.72
2022-10-08T06:36:09.262Z,100995.75
2022-10-08T06:38:37.497Z,100998.19
2022-10-08T06:41:05.836Z,100994.66
2022-10-08T06:43:33.929Z,100991.38
2022-10-08T06:46:05.677Z,100997.63
2022-10-08T06:48:34.198Z,100997.53
2022-10-08T06:51:06.983Z,101010.88
2022-10-08T06:53:38.839Z,100993.72
2022-10-08T06:56:10.757Z,100997.78
2022-10-08T06:58:39.453Z,101001.88
2022-10-08T07:01:09.415Z,100994.53
2022-10-08T07:03:38.123Z,101007.28
2022-10-08T07:06:09.899Z,101001.44
2022-10-08T07:08:38.310Z,101001.66
2022-10-08T07:11:07.945Z,101012.50
2022-10-08T07:13:36.934Z,101016.91
2022-10-08T07:16:06.166Z,101007.53
2022-10-08T07:18:35.621Z,101011.38
2022-10-08T07:21:03.905Z,100997.47
2022-10-08T07:23:33.765Z,100994.09
2022-10-08T07:26:03.799Z,100982.78
2022-10-08T07:28:33.927Z,100985.72
2022-10-08T07:31:05.630Z,100986.81
2022-10-08T07:33:34.160Z,100988.59
2022-10-08T07:36:10.601Z,100988.28
2022-10-08T07:38:40.562Z,100972.19
2022-10-08T07:41:09.797Z,100972.63
2022-10-08T07:43:41.304Z,100978.97
2022-10-08T07:46:10.357Z,100974.03
2022-10-08T07:48:39.318Z,100964.41
2022-10-08T07:51:09.708Z,100968.91
2022-10-08T07:53:39.519Z,100963.97
2022-10-08T07:56:08.631Z,100967.91
2022-10-08T07:58:37.529Z,100969.59
2022-10-08T08:01:08.082Z,100963.47
2022-10-08T08:03:36.919Z,100955.22
2022-10-08T08:06:09.401Z,100952.88
2022-10-08T08:08:39.962Z,100960.56
2022-10-08T08:11:10.862Z,100962.50
2022-10-08T08:13:40.474Z,100965.75
2022-10-08T08:16:11.123Z,100962.88
2022-10-08T08:18:42.317Z,100960.06
2022-10-08T08:21:12.861Z,100961.53
2022-10-08T08:23:44.229Z,100953.38
2022-10-08T08:26:14.157Z,100964.88
2022-10-08T08:28:42.799Z,100952.25
2022-10-08T08:31:12.290Z,100946.22
2022-10-08T08:33:40.646Z,100957.63
2022-10-08T08:36:09.086Z,100958.44
2022-10-08T08:38:38.081Z,100958.81
2022-10-08T08:41:22.935Z,100965.94
2022-10-08T08:43:59.768Z,100960.47
2022-10-08T08:46:29.880Z,100960.44
2022-10-08T08:49:01.393Z,100954.09
2022-10-08T08:51:29.701Z,100965.06
2022-10-08T08:53:57.796Z,100959.41
2022-10-08T08:56:28.123Z,100951.84
2022-10-08T08:59:01.885Z,100946.66
2022-10-08T09:01:37.188Z,100946.22
2022-10-08T09:04:11.090Z,100946.69
2022-10-08T09:06:41.169Z,100945.41
2022-10-08T09:09:21.825Z,100938.94
2022-10-08T09:11:51.517Z,100947.91
2022-10-08T09:14:33.176Z,100943.72
2022-10-08T09:17:03.726Z,100947.66
2022-10-08T09:19:32.602Z,100949.25
2022-10-08T09:22:00.689Z,100940.69
2022-10-08T09:24:29.894Z,100939.13
2022-10-08T09:26:59.590Z,100938.63
2022-10-08T09:29:35.335Z,100926.03
2022-10-08T09:32:03.651Z,100945.03
2022-10-08T09:34:31.962Z,100935.38
2022-10-08T09:37:06.253Z,100920.50
2022-10-08T09:39:37.209Z,100911.25
2022-10-08T09:42:17.387Z,100908.13
2022-10-08T09:44:47.248Z,100916.09
2022-10-08T09:47:18.915Z,100930.28
2022-10-08T09:49:50.066Z,100922.50
2022-10-08T09:52:23.026Z,100909.03
2022-10-08T09:54:54.952Z,100908.78
2022-10-08T09:57:24.770Z,100902.53
2022-10-08T09:59:55.488Z,100913.09
2022-10-08T10:02:32.783Z,100897.94
2022-10-08T10:05:02.571Z,100901.78
2022-10-08T10:07:43.253Z,100898.06
2022-10-08T10:10:18.202Z,100889.38
2022-10-08T10:12:52.643Z,100889.09
2022-10-08T10:15:24.156Z,100889.13
2022-10-08T10:17:55.879Z,100887.63
2022-10-08T10:20:29.730Z,100892.66
2022-10-08T10:23:01.024Z,100889.94
2022-10-08T10:25:38.491Z,100888.50
2022-10-08T10:28:14.260Z,100882.19
2022-10-08T10:30:52.040Z,100871.13
2022-10-08T10:33:25.088Z,100864.09
2022-10-08T10:35:56.940Z,100863.81
2022-10-08T10:38:28.413Z,100871.09
2022-10-08T10:41:10.506Z,100869.38
2022-10-08T10:43:48.517Z,100859.69
2022-10-08T10:46:26.441Z,100853.06
2022-10-08T10:48:54.645Z,100859.13
2022-10-08T10:51:42.570Z,100849.91
2022-10-08T10:54:27.601Z,100865.50
2022-10-08T10:57:00.691Z,100851.53
2022-10-08T10:59:45.004Z,100835.91
2022-10-08T11:02:23.116Z,100838.56
2022-10-08T11:05:02.521Z,100829.25
2022-10-08T11:07:48.343Z,100830.44
2022-10-08T11:10:29.965Z,100826.22
2022-10-08T11:13:06.688Z,100819.56
2022-10-08T11:15:41.617Z,100801.78
2022-10-08T11:18:26.631Z,100801.22
2022-10-08T11:21:06.313Z,100805.69
2022-10-08T11:23:55.864Z,100795.44
2022-10-08T11:26:30.381Z,100799.66
2022-10-08T11:29:07.317Z,100788.22
2022-10-08T11:31:42.698Z,100794.44
2022-10-08T11:34:34.151Z,100790.22
2022-10-08T11:37:13.283Z,100788.03
2022-10-08T11:39:48.653Z,100780.47
2022-10-08T11:42:25.945Z,100781.84
2022-10-08T11:44:54.023Z,100771.19
2022-10-08T11:47:51.056Z,100769.28
2022-10-08T11:50:31.498Z,100762.66
2022-10-08T11:53:18.435Z,100768.81
2022-10-08T11:55:52.381Z,100773.06
2022-10-08T11:58:24.881Z,100767.22
2022-10-08T12:01:01.974Z,100761.16
2022-10-08T12:03:34.806Z,100757.78
2022-10-08T12:06:17.132Z,100749.16
2022-10-08T12:08:53.798Z,100742.56
2022-10-08T12:11:50.880Z,100750.78
2022-10-08T12:14:47.489Z,100744.06
2022-10-08T12:17:16.363Z,100749.13
2022-10-08T12:20:22.612Z,100739.53
2022-10-08T12:23:02.297Z,100741.34
2022-10-08T12:25:37.461Z,100735.31
2022-10-08T12:28:53.096Z,100729.81
2022-10-08T12:31:44.219Z,100723.75
2022-10-08T12:34:18.778Z,100719.28
2022-10-08T12:37:01.998Z,100715.41
2022-10-08T12:39:39.837Z,100709.22
2022-10-08T12:42:18.991Z,100722.56
2022-10-08T12:45:07.962Z,100711.94
2022-10-08T12:47:45.671Z,100724.91
2022-10-08T12:50:38.038Z,100727.09
2022-10-08T12:53:09.550Z,100720.94
2022-10-08T12:55:47.106Z,100708.25
2022-10-08T12:58:19.098Z,100719.25
2022-10-08T13:00:52.673Z,100723.59
2022-10-08T13:03:21.888Z,100722.00
2022-10-08T13:05:50.773Z,100719.94
2022-10-08T13:08:30.314Z,100718.94
2022-10-08T13:11:00.221Z,100716.47
2022-10-08T13:13:35.117Z,100719.13
2022-10-08T13:16:04.678Z,100717.81
2022-10-08T13:18:34.573Z,100727.84
2022-10-08T13:21:04.583Z,100728.34
2022-10-08T13:23:37.401Z,100720.84
2022-10-08T13:26:05.497Z,100716.63
2022-10-08T13:28:59.404Z,100713.78
2022-10-08T13:31:24.886Z,100716.13
2022-10-08T13:33:53.186Z,100719.03
2022-10-08T13:36:23.897Z,100719.34
2022-10-08T13:38:53.647Z,100719.69
2022-10-08T13:41:25.289Z,100708.47
2022-10-08T13:43:53.422Z,100707.41
2022-10-08T13:46:21.691Z,100703.81
2022-10-08T13:48:49.836Z,100714.31
2022-10-08T13:51:17.999Z,100704.94
2022-10-08T13:53:46.225Z,100706.31
2022-10-08T13:56:18.211Z,100709.09
2022-10-08T13:58:46.459Z,100711.03
2022-10-08T14:01:14.634Z,100712.69
2022-10-08T14:03:42.801Z,100715.69
2022-10-08T14:06:11.109Z,100703.50
2022-10-08T14:08:39.239Z,100697.72
2022-10-08T14:11:17.857Z,100702.63
2022-10-08T14:13:45.956Z,100699.78
2022-10-08T14:16:14.581Z,100704.09
2022-10-08T14:18:42.840Z,100697.97
2022-10-08T14:21:14.065Z,100702.19
2022-10-08T14:23:42.228Z,100702.91
2022-10-08T14:26:12.886Z,100700.34
2022-10-08T14:28:42.537Z,100701.66
2022-10-08T14:31:13.867Z,100701.91
2022-10-08T14:33:42.109Z,100700.44
2022-10-08T14:36:17.059Z,100702.59
2022-10-08T14:38:45.445Z,100709.16
2022-10-08T14:41:13.939Z,100707.66
2022-10-08T14:43:43.687Z,100703.97
2022-10-08T14:46:11.877Z,100707.03
2022-10-08T14:48:41.061Z,100701.16
2022-10-08T14:51:09.184Z,100698.69
2022-10-08T14:53:37.284Z,100703.50
2022-10-08T14:56:12.400Z,100709.16
2022-10-08T14:58:41.080Z,100710.22
2022-10-08T15:01:10.873Z,100705.22
2022-10-08T15:03:39.155Z,100706.16
2022-10-08T15:06:07.686Z,100707.09
2022-10-08T15:08:35.992Z,100702.78
2022-10-08T15:11:04.776Z,100708.13
2022-10-08T15:13:33.162Z,100712.66
2022-10-08T15:16:01.403Z,100716.84
2022-10-08T15:18:32.639Z,100712.00
2022-10-08T15:21:01.760Z,100715.31
2022-10-08T15:23:30.581Z,100718.78
2022-10-08T15:25:59.704Z,100722.63
2022-10-08T15:28:28.984Z,100733.81
2022-10-08T15:31:05.117Z,100721.97
2022-10-08T15:33:39.212Z,100725.25
2022-10-08T15:36:21.279Z,100731.22
2022-10-08T15:38:55.533Z,100732.50
2022-10-08T15:41:23.859Z,100730.13
2022-10-08T15:43:52.063Z,100725.94
2022-10-08T15:46:22.617Z,100735.41
2022-10-08T15:48:57.166Z,100732.72
2022-10-08T15:51:26.081Z,100735.53
2022-10-08T15:53:54.263Z,100732.47
2022-10-08T15:56:22.386Z,100737.09
2022-10-08T15:58:51.564Z,100735.31
2022-10-08T16:01:21.587Z,100738.22
2022-10-08T16:03:51.934Z,100748.16
2022-10-08T16:06:23.600Z,100752.31
2022-10-08T16:08:51.904Z,100756.38
2022-10-08T16:11:21.878Z,100755.13
2022-10-08T16:13:51.995Z,100749.25
2022-10-08T16:16:21.376Z,100758.16
2022-10-08T16:18:52.972Z,100767.00
2022-10-08T16:21:22.680Z,100771.50
2022-10-08T16:23:50.932Z,100777.09
2022-10-08T16:26:21.599Z,100772.69
2022-10-08T16:28:51.623Z,100771.66
2022-10-08T16:31:20.233Z,100776.13
2022-10-08T16:33:49.424Z,100775.94
2022-10-08T16:36:17.535Z,100776.84
2022-10-08T16:38:47.094Z,100779.34
2022-10-08T16:41:17.778Z,100779.19
2022-10-08T16:43:47.418Z,100780.69
2022-10-08T16:46:17.701Z,100782.91
2022-10-08T16:48:51.308Z,100781.34
2022-10-08T16:51:19.683Z,100789.19
2022-10-08T16:53:53.342Z,100776.78
2022-10-08T16:56:22.893Z,100779.75
2022-10-08T16:58:53.149Z,100786.47
2022-10-08T17:01:21.910Z,100794.13
2022-10-08T17:03:51.126Z,100789.31
2022-10-08T17:06:20.539Z,100792.34
2022-10-08T17:08:49.805Z,100795.00
2022-10-08T17:11:20.178Z,100790.19
2022-10-08T17:13:50.182Z,100796.25
2022-10-08T17:16:19.737Z,100794.53
2022-10-08T17:18:50.899Z,100793.78
2022-10-08T17:21:19.289Z,100790.84
2022-10-08T17:23:47.531Z,100795.13
2022-10-08T17:26:17.363Z,100800.06
2022-10-08T17:28:49.156Z,100805.59
2022-10-08T17:31:19.143Z,100806.41
2022-10-08T17:33:47.936Z,100808.63
2022-10-08T17:36:18.302Z,100809.03
2022-10-08T17:38:49.556Z,100808.03
2022-10-08T17:41:19.560Z,100807.44
2022-10-08T17:43:50.594Z,100799.72
2022-10-08T17:46:20.931Z,100800.09
2022-10-08T17:48:49.864Z,100791.22
2022-10-08T17:51:19.593Z,100793.13
2022-10-08T17:53:53.319Z,100793.00
2022-10-08T17:56:22.559Z,100795.81
2022-10-08T17:58:52.718Z,100796.59
2022-10-08T18:01:22.662Z,100787.91
2022-10-08T18:03:52.832Z,100798.84
2022-10-08T18:06:21.548Z,100790.13
2022-10-08T18:08:50.050Z,100790.13
2022-10-08T18:11:18.598Z,100789.63
2022-10-08T18:13:46.726Z,100788.66
2022-10-08T18:16:18.202Z,100791.03
2022-10-08T18:18:47.919Z,100790.88
2022-10-08T18:21:18.623Z,100795.81
2022-10-08T18:23:47.522Z,100791.16
2022-10-08T18:26:18.862Z,100801.69
2022-10-08T18:28:48.241Z,100798.84
2022-10-08T18:31:20.107Z,100799.78
2022-10-08T18:33:51.130Z,100802.00
2022-10-08T18:36:20.963Z,100793.44
2022-10-08T18:38:50.280Z,100793.97
2022-10-08T18:41:20.520Z,100791.84
2022-10-08T18:43:50.228Z,100788.25
2022-10-08T18:46:21.460Z,100784.91
2022-10-08T18:48:50.533Z,100794.09
2022-10-08T18:51:21.484Z,100787.88
2022-10-08T18:53:50.670Z,100784.84
2022-10-08T18:56:20.991Z,100785.16
2022-10-08T18:58:50.683Z,100788.34
2022-10-08T19:01:22.462Z,100786.44
2022-10-08T19:03:53.212Z,100779.44
2022-10-08T19:06:23.130Z,100786.56
2022-10-08T19:08:51.947Z,100786.22
2022-10-08T19:11:22.202Z,100782.75
2022-10-08T19:13:50.956Z,100778.28
2022-10-08T19:16:20.638Z,100781.03
2022-10-08T19:18:54.682Z,100770.22
2022-10-08T19:21:23.655Z,100775.91
2022-10-08T19:23:51.875Z,100764.38
2022-10-08T19:26:20.706Z,100770.06
2022-10-08T19:28:51.687Z,100767.53
2022-10-08T19:31:23.028Z,100764.84
2022-10-08T19:33:52.025Z,100768.84
2022-10-08T19:36:21.101Z,100766.25
2022-10-08T19:38:52.803Z,100764.84
2022-10-08T19:41:21.900Z,100758.97
2022-10-08T19:43:50.134Z,100764.97
2022-10-08T19:46:18.937Z,100766.75
2022-10-08T19:48:51.556Z,100763.56
2022-10-08T19:51:21.296Z,100764.19
2022-10-08T19:53:50.116Z,100759.72
2022-10-08T19:56:19.379Z,100756.22
2022-10-08T19:58:49.606Z,100750.34
2022-10-08T20:01:20.189Z,100748.91
2022-10-08T20:03:48.740Z,100758.25
2022-10-08T20:06:24.367Z,100750.97
2022-10-08T20:08:54.708Z,100745.94
2022-10-08T20:11:23.406Z,100746.72
2022-10-08T20:13:53.288Z,100742.78
2022-10-08T20:16:23.478Z,100745.16
2022-10-08T20:18:53.157Z,100746.91
2022-10-08T20:21:23.710Z,100746.75
2022-10-08T20:23:52.007Z,100744.88
2022-10-08T20:26:22.157Z,100748.34
2022-10-08T20:28:52.019Z,100751.38
2022-10-08T20:31:22.008Z,100751.06
2022-10-08T20:33:55.717Z,100742.50
2022-10-08T20:36:25.590Z,100739.16
2022-10-08T20:38:53.782Z,100748.22
2022-10-08T20:41:25.453Z,100743.78
2022-10-08T20:44:00.367Z,100748.44
2022-10-08T20:46:28.808Z,100743.53
2022-10-08T20:48:57.138Z,100740.81
2022-10-08T20:51:28.432Z,100738.66
2022-10-08T20:53:57.796Z,100737.19
2022-10-08T20:56:26.982Z,100735.75
2022-10-08T20:58:55.772Z,100730.81
2022-10-08T21:01:26.039Z,100725.50
2022-10-08T21:03:54.878Z,100738.16
2022-10-08T21:06:24.630Z,100730.06
2022-10-08T21:08:56.574Z,100732.44
2022-10-08T21:11:27.384Z,100725.31
2022-10-08T21:13:55.748Z,100723.75
2022-10-08T21:16:26.033Z,100718.63
2022-10-08T21:18:55.894Z,100722.78
2022-10-08T21:21:24.150Z,100727.84
2022-10-08T21:23:54.029Z,100731.94
2022-10-08T21:26:24.030Z,100735.00
2022-10-08T21:28:54.325Z,100725.97
2022-10-08T21:31:23.468Z,100726.91
2022-10-08T21:33:53.355Z,100721.56
2022-10-08T21:36:23.336Z,100722.81
2022-10-08T21:38:51.452Z,100725.69
2022-10-08T21:41:22.358Z,100720.16
2022-10-08T21:43:52.238Z,100712.38
2022-10-08T21:46:22.408Z,100705.28
2022-10-08T21:48:55.289Z,100710.03
2022-10-08T21:51:23.820Z,100707.81
2022-10-08T21:53:53.746Z,100704.66
2022-10-08T21:56:25.357Z,100702.47
2022-10-08T21:58:54.994Z,100698.50
2022-10-08T22:01:25.986Z,100701.06
2022-10-08T22:03:55.762Z,100689.94
2022-10-08T22:06:24.305Z,100701.50
2022-10-08T22:08:52.961Z,100695.19
2022-10-08T22:11:23.307Z,100694.84
2022-10-08T22:13:52.115Z,100698.06
2022-10-08T22:16:23.053Z,100702.94
2022-10-08T22:18:51.168Z,100699.97
2022-10-08T22:21:21.603Z,100697.59
2022-10-08T22:23:51.389Z,100698.72
2022-10-08T22:26:22.817Z,100700.44
2022-10-08T22:28:52.501Z,100700.56
2022-10-08T22:31:21.455Z,100699.34
2022-10-08T22:33:50.312Z,100694.84
2022-10-08T22:36:21.926Z,100691.19
2022-10-08T22:38:50.405Z,100698.38
2022-10-08T22:41:21.033Z,100696.91
2022-10-08T22:43:49.229Z,100686.00
2022-10-08T22:46:20.395Z,100688.69
2022-10-08T22:48:48.976Z,100688.38
2022-10-08T22:51:18.354Z,100692.31
2022-10-08T22:53:47.165Z,100687.72
2022-10-08T22:56:17.051Z,100685.47
2022-10-08T22:58:45.732Z,100686.41
2022-10-08T23:01:15.205Z,100688.00
2022-10-08T23:03:44.801Z,100678.34
2022-10-08T23:06:16.394Z,100681.97
2022-10-08T23:08:45.784Z,100688.66
2022-10-08T23:11:14.836Z,100685.16
2022-10-08T23:13:45.629Z,100686.63
2022-10-08T23:16:16.613Z,100680.25
2022-10-08T23:18:47.544Z,100674.69
2022-10-08T23:21:17.601Z,100683.28
2022-10-08T23:23:47.232Z,100687.53
2022-10-08T23:26:16.294Z,100685.34
2022-10-08T23:28:46.024Z,100691.38
2022-10-08T23:31:16.294Z,100690.28
2022-10-08T23:33:47.416Z,100692.97
2022-10-08T23:36:18.354Z,100699.28
2022-10-08T23:38:46.847Z,100693.56
2022-10-08T23:41:15.472Z,100698.38
2022-10-08T23:43:44.814Z,100685.81
2022-10-08T23:46:14.157Z,100685.47
2022-10-08T23:48:43.335Z,100685.03
2022-10-08T23:51:13.988Z,100687.09
2022-10-08T23:53:43.116Z,100691.25
2022-10-08T23:56:12.236Z,100692.03
2022-10-08T23:58:40.792Z,100689.94
